Hellier, Kentucky
Current Conditions -  °F | °C
As of 12:35 AM on Thursday 23 Oct 2014 (Local Time) from KPBX Reporting Station
Overcast Overcast  
Wind Chill:   Ceiling: 1200
Heat Index:   Visibility: 10mi
Dew Point:   Wind: 3mph
Humidity: 89%   Direction: 350°N
Pressure: 30.21"   Gusts: NA
Location:  37.29°N, 82.47°W
Report Text: KPBX 230435Z AUTO 35003KT 10SM BKN012 OVC022 08/06 A3021 RMK AO2 T00750058
Loading
Personal Weather Stations






























Interactive Weather Map
Tropical Storm Tracking
New forecast layout! Learn more

10-Day Weather Forecast

Advertisements
Track Severe Weather on mobile